Time;durP1;ratioP1;P1;durP2;ratioP2;P2;SDS_P1;SDS_P2;PMS_P1;PMS_P2;Temp;Humidity;BMP_temperature;BMP_pressure;BME280_temperature;BME280_humidity;BME280_pressure;Samples;Min_cycle;Max_cycle;Signal;HPM_P1;HPM_P2
2022/09/10 00:01:31;;;;;;;18.02;5.85;;;;;;;14.59;100.00;100745.81;5028795;28;20059;-81
2022/09/10 00:03:58;;;;;;;21.50;5.90;;;;;;;14.61;100.00;100746.59;5025351;28;20029;-81
2022/09/10 00:06:26;;;;;;;19.70;5.55;;;;;;;14.60;100.00;100744.84;5046405;28;20028;-82
2022/09/10 00:08:53;;;;;;;15.75;5.55;;;;;;;14.60;100.00;100742.13;5050223;28;20389;-82
2022/09/10 00:11:19;;;;;;;18.35;5.57;;;;;;;14.62;100.00;100737.44;5049773;28;20083;-82
2022/09/10 00:13:48;;;;;;;18.88;5.40;;;;;;;14.61;100.00;100740.25;5049847;28;20099;-82
2022/09/10 00:16:14;;;;;;;15.10;5.38;;;;;;;14.65;100.00;100742.56;5050084;28;20033;-82
2022/09/10 00:18:42;;;;;;;17.92;5.95;;;;;;;14.65;100.00;100737.16;5048990;28;20108;-82
2022/09/10 00:21:11;;;;;;;17.40;5.28;;;;;;;14.64;100.00;100738.19;5048069;28;20032;-82
2022/09/10 00:23:37;;;;;;;17.30;5.22;;;;;;;14.64;100.00;100748.13;5047769;28;20033;-82
2022/09/10 00:26:30;;;;;;;13.38;4.80;;;;;;;14.65;100.00;100733.63;5051931;28;20503;-82
2022/09/10 00:28:58;;;;;;;15.50;4.72;;;;;;;14.62;100.00;100740.16;5049606;28;20045;-82
2022/09/10 00:31:24;;;;;;;18.80;5.78;;;;;;;14.61;100.00;100743.88;5050878;28;20055;-82
2022/09/10 00:33:51;;;;;;;17.77;5.80;;;;;;;14.60;100.00;100739.41;5053296;28;20138;-82
2022/09/10 00:36:25;;;;;;;15.35;5.00;;;;;;;14.61;100.00;100738.47;5050617;28;20039;-82
2022/09/10 00:38:53;;;;;;;20.70;5.70;;;;;;;14.61;100.00;100735.75;5053981;28;20039;-82
2022/09/10 00:41:21;;;;;;;19.95;5.60;;;;;;;14.62;100.00;100744.72;5052620;28;20093;-82
2022/09/10 00:43:53;;;;;;;13.18;4.75;;;;;;;14.63;100.00;100741.03;5051198;28;20028;-82
2022/09/10 00:46:42;;;;;;;18.90;4.95;;;;;;;14.64;100.00;100738.19;5052201;28;20033;-82
2022/09/10 00:49:16;;;;;;;25.00;6.30;;;;;;;14.65;100.00;100739.88;5051563;28;20077;-82
2022/09/10 00:51:44;;;;;;;17.58;5.53;;;;;;;14.63;100.00;100733.75;5039041;28;20673;-82
2022/09/10 00:54:10;;;;;;;17.20;5.32;;;;;;;14.63;100.00;100728.34;5047992;28;20021;-83
2022/09/10 00:56:35;;;;;;;16.83;5.50;;;;;;;14.62;100.00;100734.75;5044192;28;20174;-82
2022/09/10 00:59:03;;;;;;;20.02;5.80;;;;;;;14.64;100.00;100735.47;5052411;28;20040;-82
2022/09/10 01:01:29;;;;;;;20.23;6.72;;;;;;;14.64;100.00;100740.00;5032359;28;20569;-82
2022/09/10 01:03:55;;;;;;;16.33;5.70;;;;;;;14.64;100.00;100743.59;5040480;28;20104;-82
2022/09/10 01:06:20;;;;;;;24.63;5.97;;;;;;;14.67;100.00;100747.84;5041618;28;20132;-82
2022/09/10 01:08:45;;;;;;;19.42;6.00;;;;;;;14.68;100.00;100750.44;5048808;28;20024;-82
2022/09/10 01:11:17;;;;;;;21.67;6.65;;;;;;;14.71;100.00;100753.84;5052225;28;20041;-82
2022/09/10 01:14:18;;;;;;;17.88;5.82;;;;;;;14.73;100.00;100750.00;5050698;28;20056;-82
2022/09/10 01:17:13;;;;;;;20.73;6.82;;;;;;;14.79;100.00;100751.28;5046505;28;20039;-82
2022/09/10 01:20:03;;;;;;;21.50;6.90;;;;;;;14.80;100.00;100748.44;4975082;28;20042;-82
2022/09/10 01:23:16;;;;;;;18.98;6.78;;;;;;;14.80;100.00;100748.44;4988478;28;20074;-82
2022/09/10 01:26:08;;;;;;;19.33;6.43;;;;;;;14.82;100.00;100751.00;4978802;28;20043;-82
2022/09/10 01:29:00;;;;;;;19.50;6.28;;;;;;;14.83;100.00;100752.69;4986252;28;20129;-82
2022/09/10 01:31:36;;;;;;;18.70;6.45;;;;;;;14.81;100.00;100747.41;4972866;28;20413;-83
2022/09/10 01:34:20;;;;;;;18.40;6.35;;;;;;;14.81;100.00;100746.56;4971307;28;20034;-82
2022/09/10 01:36:50;;;;;;;23.63;7.40;;;;;;;14.79;100.00;100746.72;4982544;28;20100;-82
2022/09/10 01:39:19;;;;;;;17.48;6.55;;;;;;;14.79;100.00;100746.72;4977916;28;20219;-82
2022/09/10 01:41:48;;;;;;;23.50;7.80;;;;;;;14.78;100.00;100744.16;4962440;28;20035;-82
2022/09/10 01:44:44;;;;;;;22.27;6.97;;;;;;;14.80;100.00;100755.69;4970389;28;20453;-82
2022/09/10 01:47:24;;;;;;;23.05;7.50;;;;;;;14.79;100.00;100743.16;4987702;28;20042;-82
2022/09/10 01:49:59;;;;;;;20.60;7.57;;;;;;;14.79;100.00;100745.88;4990464;28;20049;-83
2022/09/10 01:52:30;;;;;;;19.73;8.07;;;;;;;14.78;100.00;100745.00;4990880;28;20038;-83
2022/09/10 01:54:55;;;;;;;20.33;7.13;;;;;;;14.79;100.00;100748.59;4992905;28;20393;-82
2022/09/10 01:57:40;;;;;;;20.92;7.20;;;;;;;14.76;100.00;100740.72;5050258;28;20021;-83
2022/09/10 02:00:13;;;;;;;21.17;7.20;;;;;;;14.73;100.00;100739.19;5042959;28;20163;-83
2022/09/10 02:02:45;;;;;;;23.15;7.05;;;;;;;14.71;100.00;100738.44;5034891;28;20484;-83
2022/09/10 02:05:13;;;;;;;20.25;7.10;;;;;;;14.70;100.00;100747.59;5051703;28;20032;-83
2022/09/10 02:07:39;;;;;;;22.80;6.93;;;;;;;14.67;100.00;100742.44;5041502;28;20021;-82
2022/09/10 02:10:07;;;;;;;23.67;6.95;;;;;;;14.66;100.00;100744.28;5050730;28;20148;-82
2022/09/10 02:12:33;;;;;;;20.88;8.13;;;;;;;14.64;100.00;100737.31;5049607;28;20025;-83
2022/09/10 02:14:59;;;;;;;17.88;7.07;;;;;;;14.63;100.00;100741.03;5048976;28;20036;-83
2022/09/10 02:17:32;;;;;;;19.95;7.57;;;;;;;14.62;100.00;100731.19;5050731;28;20472;-83
2022/09/10 02:20:00;;;;;;;22.20;8.38;;;;;;;14.62;100.00;100728.50;5050178;28;20029;-83
2022/09/10 02:22:29;;;;;;;26.83;8.50;;;;;;;14.59;100.00;100728.75;5040264;28;20057;-84
2022/09/10 02:24:54;;;;;;;23.27;7.78;;;;;;;14.58;100.00;100725.16;5046683;28;20065;-83
2022/09/10 02:27:19;;;;;;;20.77;7.93;;;;;;;14.58;100.00;100722.47;5049238;28;20025;-83
2022/09/10 02:29:48;;;;;;;19.38;8.02;;;;;;;14.57;100.00;100725.31;5041947;28;20033;-83
2022/09/10 02:32:13;;;;;;;21.08;7.72;;;;;;;14.56;100.00;100723.63;5050098;28;20064;-83
2022/09/10 02:34:39;;;;;;;22.40;8.30;;;;;;;14.55;100.00;100721.91;5049592;28;20115;-83
2022/09/10 02:37:04;;;;;;;20.27;8.10;;;;;;;14.54;100.00;100723.78;5047552;28;20505;-83
2022/09/10 02:39:29;;;;;;;19.92;7.45;;;;;;;14.52;100.00;100720.34;5049718;28;20122;-83
2022/09/10 02:41:55;;;;;;;21.13;7.88;;;;;;;14.52;100.00;100725.75;5049556;28;20384;-83
2022/09/10 02:44:21;;;;;;;23.05;8.43;;;;;;;14.51;100.00;100724.06;5049025;28;20414;-83
2022/09/10 02:46:46;;;;;;;19.92;7.55;;;;;;;14.51;100.00;100718.66;5048916;28;20078;-83
2022/09/10 02:49:12;;;;;;;19.55;7.93;;;;;;;14.51;100.00;100721.34;5049342;28;20029;-83
2022/09/10 02:51:37;;;;;;;22.52;7.38;;;;;;;14.54;100.00;100725.59;5052020;28;20499;-83
2022/09/10 02:54:03;;;;;;;19.23;7.85;;;;;;;14.54;100.00;100723.78;5045103;28;20503;-82
2022/09/10 02:56:29;;;;;;;20.55;7.53;;;;;;;14.56;100.00;100734.44;5050498;28;20469;-83
2022/09/10 02:58:54;;;;;;;20.17;8.82;;;;;;;14.57;100.00;100726.19;5051435;28;20025;-83
2022/09/10 03:01:21;;;;;;;21.08;8.90;;;;;;;14.59;100.00;100724.19;5032552;28;20035;-83
2022/09/10 03:03:51;;;;;;;21.08;8.50;;;;;;;14.60;100.00;100723.19;5041248;28;20029;-83
2022/09/10 03:06:16;;;;;;;29.42;9.07;;;;;;;14.61;100.00;100716.84;5048271;28;20033;-83
2022/09/10 03:08:41;;;;;;;23.15;9.52;;;;;;;14.63;100.00;100728.34;5048834;28;20027;-83
2022/09/10 03:11:07;;;;;;;22.65;9.02;;;;;;;14.64;100.00;100724.66;5048941;28;20473;-83
2022/09/10 03:13:33;;;;;;;24.10;8.93;;;;;;;14.65;100.00;100728.19;5047753;28;20032;-83
2022/09/10 03:15:59;;;;;;;20.55;9.43;;;;;;;14.65;100.00;100723.63;5042246;28;20112;-82
2022/09/10 03:18:26;;;;;;;21.73;9.13;;;;;;;14.64;100.00;100730.06;5048766;28;20124;-83
2022/09/10 03:20:52;;;;;;;20.85;9.05;;;;;;;14.64;100.00;100729.19;5049570;28;20028;-83
2022/09/10 03:23:17;;;;;;;23.60;9.15;;;;;;;14.63;100.00;100722.94;5043545;28;20018;-83
2022/09/10 03:25:43;;;;;;;23.90;9.10;;;;;;;14.62;100.00;100717.69;5045295;28;20032;-83
2022/09/10 03:28:09;;;;;;;25.67;9.35;;;;;;;14.63;100.00;100717.53;5050843;28;20029;-83
2022/09/10 03:30:36;;;;;;;24.25;9.63;;;;;;;14.62;100.00;100717.69;5048609;28;20028;-83
2022/09/10 03:33:01;;;;;;;20.27;9.02;;;;;;;14.59;100.00;100721.47;5048977;28;20044;-84
2022/09/10 03:35:27;;;;;;;23.63;10.30;;;;;;;14.60;100.00;100720.50;5046644;28;20033;-83
2022/09/10 03:37:52;;;;;;;25.67;9.60;;;;;;;14.59;100.00;100720.63;5044142;28;20259;-83
2022/09/10 03:40:18;;;;;;;22.02;9.60;;;;;;;14.59;100.00;100718.78;5038251;28;20052;-83
2022/09/10 03:42:43;;;;;;;25.10;10.15;;;;;;;14.59;100.00;100720.63;5046844;28;20078;-83
2022/09/10 03:45:09;;;;;;;24.05;10.23;;;;;;;14.60;100.00;100715.09;5044370;28;20782;-84
2022/09/10 03:47:38;;;;;;;21.40;9.68;;;;;;;14.61;100.00;100715.94;5046048;28;20044;-83
2022/09/10 03:50:04;;;;;;;20.60;10.47;;;;;;;14.59;100.00;100718.78;5049814;28;20444;-83
2022/09/10 03:52:29;;;;;;;22.30;10.30;;;;;;;14.59;100.00;100717.94;5049155;28;20448;-83
2022/09/10 03:54:55;;;;;;;26.58;11.05;;;;;;;14.58;100.00;100714.34;5035917;28;20040;-83
2022/09/10 03:57:21;;;;;;;25.75;12.50;;;;;;;14.57;100.00;100714.50;5055187;28;20594;-84
2022/09/10 03:59:46;;;;;;;26.60;10.45;;;;;;;14.57;100.00;100715.38;5029462;28;20041;-82
2022/09/10 04:02:11;;;;;;;25.30;10.70;;;;;;;14.57;100.00;100720.78;5021799;28;20029;-84
2022/09/10 04:04:37;;;;;;;23.10;10.85;;;;;;;14.57;100.00;100715.38;5035641;28;20021;-83
2022/09/10 04:07:03;;;;;;;28.40;10.35;;;;;;;14.59;100.00;100707.94;5046272;28;20021;-82
2022/09/10 04:09:31;;;;;;;25.45;10.75;;;;;;;14.56;100.00;100712.81;5044229;28;20059;-83
2022/09/10 04:11:57;;;;;;;22.83;10.32;;;;;;;14.56;100.00;100707.41;5049340;28;20021;-83
2022/09/10 04:14:22;;;;;;;24.13;11.82;;;;;;;14.58;100.00;100700.81;5038585;28;20033;-83
2022/09/10 04:16:48;;;;;;;20.55;10.25;;;;;;;14.57;100.00;100709.09;5045956;28;20033;-83
2022/09/10 04:19:13;;;;;;;22.98;10.40;;;;;;;14.59;100.00;100707.94;5047063;28;20401;-83
2022/09/10 04:21:39;;;;;;;23.33;11.65;;;;;;;14.58;100.00;100703.53;5050231;28;20112;-84
2022/09/10 04:24:05;;;;;;;22.02;10.30;;;;;;;14.59;100.00;100701.69;5039517;28;20033;-83
2022/09/10 04:26:30;;;;;;;30.58;12.38;;;;;;;14.58;100.00;100700.81;5047211;28;20036;-83
2022/09/10 04:28:55;;;;;;;24.67;11.23;;;;;;;14.59;100.00;100702.53;5047747;28;20041;-83
2022/09/10 04:31:21;;;;;;;24.83;11.93;;;;;;;14.59;100.00;100699.84;5046532;28;20099;-83
2022/09/10 04:33:47;;;;;;;26.48;11.73;;;;;;;14.60;100.00;100703.41;5049641;28;20436;-83
2022/09/10 04:36:13;;;;;;;28.23;11.77;;;;;;;14.60;100.00;100704.25;5043009;28;20388;-83
2022/09/10 04:38:42;;;;;;;22.90;11.95;;;;;;;14.61;100.00;100697.00;5045326;28;20127;-83
2022/09/10 04:41:08;;;;;;;23.77;11.80;;;;;;;14.61;100.00;100697.91;5048733;28;20112;-82
2022/09/10 04:43:34;;;;;;;25.05;12.13;;;;;;;14.61;100.00;100706.00;5046348;28;20029;-83
2022/09/10 04:45:59;;;;;;;23.58;11.52;;;;;;;14.63;100.00;100709.41;5047707;28;20031;-83
2022/09/10 04:48:24;;;;;;;29.13;12.18;;;;;;;14.62;100.00;100707.69;5046419;28;20025;-83
2022/09/10 04:50:50;;;;;;;26.60;11.50;;;;;;;14.64;100.00;100710.25;5046504;28;20024;-83
2022/09/10 04:53:17;;;;;;;25.70;12.40;;;;;;;14.65;100.00;100701.16;5036839;28;20068;-83
2022/09/10 04:55:44;;;;;;;23.55;12.00;;;;;;;14.66;100.00;100708.28;5045549;28;20025;-83
2022/09/10 04:58:10;;;;;;;25.88;11.82;;;;;;;14.68;100.00;100714.41;5045359;28;20017;-83
2022/09/10 05:00:35;;;;;;;24.05;11.07;;;;;;;14.65;100.00;100711.97;5040359;28;20126;-83
2022/09/10 05:03:03;;;;;;;24.95;11.98;;;;;;;14.68;100.00;100709.84;5026049;28;20029;-82
2022/09/10 05:05:29;;;;;;;24.45;11.95;;;;;;;14.68;100.00;100717.97;5033609;28;20037;-83
2022/09/10 05:07:54;;;;;;;23.80;10.82;;;;;;;14.71;100.00;100716.81;5044779;28;20112;-83
2022/09/10 05:10:22;;;;;;;25.42;12.00;;;;;;;14.70;100.00;100720.53;5041103;28;20128;-83
2022/09/10 05:12:47;;;;;;;26.67;13.27;;;;;;;14.71;100.00;100715.97;5052170;28;20021;-83
2022/09/10 05:15:13;;;;;;;29.75;12.68;;;;;;;14.72;100.00;100707.69;5046816;28;20032;-83
2022/09/10 05:17:38;;;;;;;26.02;12.20;;;;;;;14.74;100.00;100712.97;5050875;28;20040;-83
2022/09/10 05:20:06;;;;;;;24.85;12.43;;;;;;;14.74;100.00;100716.53;5052091;28;20142;-83
2022/09/10 05:22:32;;;;;;;24.88;12.05;;;;;;;14.75;100.00;100722.81;5050309;28;20029;-83
2022/09/10 05:24:57;;;;;;;23.02;12.75;;;;;;;14.77;100.00;100720.78;5049222;28;20388;-83
2022/09/10 05:27:22;;;;;;;23.67;12.40;;;;;;;14.78;100.00;100717.09;5050589;28;20036;-83
2022/09/10 05:29:48;;;;;;;27.77;13.38;;;;;;;14.79;100.00;100708.84;5051954;28;20056;-83
2022/09/10 05:32:13;;;;;;;25.45;13.27;;;;;;;14.81;100.00;100706.84;5048162;28;20127;-83
2022/09/10 05:34:38;;;;;;;24.08;11.98;;;;;;;14.83;100.00;100710.28;5045776;28;20060;-83
2022/09/10 05:37:04;;;;;;;26.67;13.25;;;;;;;14.82;100.00;100713.13;5043728;28;20029;-82
2022/09/10 05:39:30;;;;;;;27.02;14.63;;;;;;;14.84;100.00;100711.09;5036936;28;20416;-83
2022/09/10 05:41:56;;;;;;;25.85;12.95;;;;;;;14.85;100.00;100710.13;5052324;28;20040;-83
2022/09/10 05:44:21;;;;;;;28.67;14.85;;;;;;;14.87;100.00;100708.13;5049176;28;20040;-82
2022/09/10 05:46:47;;;;;;;28.95;14.25;;;;;;;14.89;100.00;100708.84;5045590;28;20075;-83
2022/09/10 05:49:12;;;;;;;25.77;12.85;;;;;;;14.91;100.00;100712.25;5046924;28;20021;-83
2022/09/10 05:51:38;;;;;;;27.60;14.80;;;;;;;14.93;100.00;100712.09;5048952;28;20028;-83
2022/09/10 05:54:03;;;;;;;30.83;15.18;;;;;;;14.95;100.00;100721.78;5047983;28;20469;-83
2022/09/10 05:56:28;;;;;;;27.20;13.80;;;;;;;14.97;100.00;100718.94;5048992;28;20089;-83
2022/09/10 05:58:54;;;;;;;27.77;14.05;;;;;;;14.96;100.00;100720.78;5049165;28;20052;-83
2022/09/10 06:01:19;;;;;;;25.75;13.88;;;;;;;14.97;100.00;100717.06;5035163;28;20485;-83
2022/09/10 06:03:44;;;;;;;27.52;15.23;;;;;;;15.00;100.00;100719.50;5037863;28;20053;-83
2022/09/10 06:06:10;;;;;;;27.48;13.98;;;;;;;14.99;100.00;100711.50;5049370;28;20037;-82
2022/09/10 06:08:35;;;;;;;26.25;14.65;;;;;;;14.99;100.00;100722.34;5048343;28;20441;-83
2022/09/10 06:11:04;;;;;;;25.23;14.25;;;;;;;14.99;100.00;100709.69;5045330;28;20131;-83
2022/09/10 06:13:31;;;;;;;27.67;15.83;;;;;;;15.01;100.00;100721.22;5048381;28;20022;-83
2022/09/10 06:15:57;;;;;;;26.92;14.80;;;;;;;15.01;100.00;100718.50;5046181;28;20029;-83
2022/09/10 06:18:22;;;;;;;28.23;15.18;;;;;;;15.01;100.00;100721.22;5042065;28;20055;-83
2022/09/10 06:20:48;;;;;;;24.63;13.85;;;;;;;15.00;100.00;100713.22;5045934;28;20029;-83
2022/09/10 06:23:16;;;;;;;28.80;14.93;;;;;;;14.99;100.00;100720.50;5048627;28;20055;-83
2022/09/10 06:25:43;;;;;;;26.70;15.48;;;;;;;15.01;100.00;100717.66;5047748;28;20431;-83
2022/09/10 06:28:08;;;;;;;25.50;14.23;;;;;;;14.99;100.00;100725.91;5047285;28;20034;-83
2022/09/10 06:30:34;;;;;;;29.15;14.60;;;;;;;14.99;100.00;100730.47;5045254;28;20443;-83
2022/09/10 06:33:00;;;;;;;26.63;15.63;;;;;;;14.98;100.00;100728.78;5045903;28;20029;-83
2022/09/10 06:35:26;;;;;;;26.05;14.60;;;;;;;14.99;100.00;100730.47;5041334;28;20090;-83
2022/09/10 06:37:51;;;;;;;28.00;15.43;;;;;;;14.99;100.00;100730.47;5045385;28;20452;-83
2022/09/10 06:40:17;;;;;;;27.27;16.45;;;;;;;14.97;100.00;100730.59;5045353;28;20383;-83
2022/09/10 06:42:42;;;;;;;27.48;16.02;;;;;;;14.97;100.00;100730.59;5043018;28;20025;-83
2022/09/10 06:45:08;;;;;;;27.20;15.35;;;;;;;14.97;100.00;100733.31;5042513;28;20029;-83
2022/09/10 06:47:33;;;;;;;26.45;15.75;;;;;;;14.97;100.00;100733.31;5042571;28;20038;-82
2022/09/10 06:49:59;;;;;;;24.88;15.15;;;;;;;14.98;100.00;100735.03;5040623;28;20033;-83
2022/09/10 06:52:24;;;;;;;26.38;15.38;;;;;;;14.98;100.00;100735.03;5042432;28;20100;-83
2022/09/10 06:54:50;;;;;;;27.55;16.35;;;;;;;14.98;100.00;100737.72;5041319;28;20039;-83
2022/09/10 06:57:16;;;;;;;26.33;14.60;;;;;;;14.98;100.00;100743.16;5039838;28;20083;-84
2022/09/10 06:59:42;;;;;;;27.25;16.05;;;;;;;15.01;100.00;100742.84;5039978;28;20045;-83
2022/09/10 07:02:08;;;;;;;29.33;16.73;;;;;;;15.03;100.00;100735.44;5027837;28;20039;-83
2022/09/10 07:04:33;;;;;;;28.13;16.27;;;;;;;15.03;100.00;100735.44;5038162;28;20025;-83
2022/09/10 07:06:59;;;;;;;27.45;16.85;;;;;;;15.09;100.00;100733.16;5038028;28;20029;-83
2022/09/10 07:09:25;;;;;;;27.00;15.43;;;;;;;15.12;100.00;100746.41;5038151;28;20055;-82
2022/09/10 07:11:50;;;;;;;24.85;14.57;;;;;;;15.11;100.00;100744.69;5039774;28;20115;-82
2022/09/10 07:14:16;;;;;;;29.63;14.25;;;;;;;15.12;100.00;100743.69;5038747;28;20094;-82
2022/09/10 07:16:43;;;;;;;27.15;13.43;;;;;;;15.10;100.00;100738.44;5039580;28;20021;-83
2022/09/10 07:19:12;;;;;;;27.85;14.20;;;;;;;15.12;100.00;100751.81;5040682;28;20029;-83
2022/09/10 07:21:38;;;;;;;24.23;13.93;;;;;;;15.12;100.00;100747.25;5039896;28;20028;-83
2022/09/10 07:24:04;;;;;;;25.98;14.48;;;;;;;15.12;100.00;100754.53;5046812;28;20021;-83
2022/09/10 07:26:30;;;;;;;26.45;13.73;;;;;;;15.10;100.00;100764.66;5045357;28;20025;-83
2022/09/10 07:28:57;;;;;;;26.75;14.80;;;;;;;15.13;100.00;100761.66;5043938;28;20036;-83
2022/09/10 07:31:28;;;;;;;26.48;14.43;;;;;;;15.14;100.00;100755.22;5042236;28;20032;-83
2022/09/10 07:33:56;;;;;;;25.48;15.15;;;;;;;15.15;100.00;100760.53;5040305;28;20029;-83
2022/09/10 07:36:22;;;;;;;23.40;14.02;;;;;;;15.18;100.00;100762.94;5046308;28;20421;-83
2022/09/10 07:38:50;;;;;;;25.23;14.80;;;;;;;15.23;100.00;100765.22;5045666;28;20025;-83
2022/09/10 07:41:16;;;;;;;25.93;15.10;;;;;;;15.26;100.00;100759.50;5046550;28;20029;-83
2022/09/10 07:43:42;;;;;;;25.58;15.00;;;;;;;15.30;100.00;100768.16;5042398;28;20052;-83
2022/09/10 07:46:19;;;;;;;27.50;15.82;;;;;;;15.34;100.00;100773.16;5045369;28;20036;-83
2022/09/10 07:48:51;;;;;;;26.92;15.48;;;;;;;15.41;100.00;100761.75;5045267;28;20083;-83
2022/09/10 07:51:18;;;;;;;24.10;14.45;;;;;;;15.44;100.00;100772.28;5046032;28;20128;-83
2022/09/10 07:53:46;;;;;;;25.00;15.25;;;;;;;15.47;100.00;100772.00;5044216;28;20492;-82
2022/09/10 07:56:12;;;;;;;25.73;16.00;;;;;;;15.49;100.00;100775.41;5045632;28;20052;-83
2022/09/10 07:58:37;;;;;;;26.35;16.65;;;;;;;15.53;100.00;100777.69;5042435;28;20118;-82
2022/09/10 08:01:08;;;;;;;30.20;17.40;;;;;;;15.56;100.00;100779.22;5025944;28;20112;-82
2022/09/10 08:03:33;;;;;;;27.20;17.13;;;;;;;15.59;100.00;100781.63;5020990;28;20030;-82
2022/09/10 08:06:02;;;;;;;27.88;16.80;;;;;;;15.62;100.00;100786.75;5027787;28;20025;-83
2022/09/10 08:08:30;;;;;;;27.02;18.02;;;;;;;15.63;100.00;100788.47;5029040;28;20541;-82
2022/09/10 08:11:05;;;;;;;26.23;16.60;;;;;;;15.68;100.00;100782.59;5029180;28;20120;-83
2022/09/10 08:13:31;;;;;;;29.35;16.30;;;;;;;15.73;100.00;100785.75;5029669;28;20523;-83
2022/09/10 08:15:56;;;;;;;29.20;16.85;;;;;;;15.76;100.00;100792.72;5029447;28;20108;-83
2022/09/10 08:18:22;;;;;;;25.70;16.27;;;;;;;15.78;100.00;100801.56;5029484;28;20027;-83
2022/09/10 08:20:55;;;;;;;25.85;16.90;;;;;;;15.78;100.00;100801.56;5030929;28;20099;-83
2022/09/10 08:23:21;;;;;;;29.85;16.27;;;;;;;15.79;100.00;100800.59;5029667;28;20523;-83
2022/09/10 08:25:52;;;;;;;26.60;16.88;;;;;;;15.81;100.00;100812.13;5030694;28;20026;-83
2022/09/10 08:28:23;;;;;;;26.63;16.63;;;;;;;15.84;100.00;100814.53;5029344;28;20068;-82
2022/09/10 08:31:00;;;;;;;28.48;18.27;;;;;;;15.85;100.00;100819.81;5035679;28;20047;-82
2022/09/10 08:33:26;;;;;;;27.02;16.85;;;;;;;15.88;100.00;100824.94;5035968;28;20029;-84
2022/09/10 08:35:55;;;;;;;24.92;15.07;;;;;;;15.89;100.00;100820.38;5029407;28;20397;-82
2022/09/10 08:38:22;;;;;;;26.17;16.50;;;;;;;15.94;100.00;100823.50;5029417;28;20037;-82
2022/09/10 08:40:47;;;;;;;27.00;16.10;;;;;;;15.98;100.00;100829.50;5056951;28;20052;-84
2022/09/10 08:43:14;;;;;;;25.25;14.50;;;;;;;15.98;100.00;100835.75;5030715;28;20100;-83
2022/09/10 08:45:48;;;;;;;26.00;15.00;;;;;;;16.03;100.00;100835.31;5032448;28;20124;-82
2022/09/10 08:48:19;;;;;;;27.70;15.15;;;;;;;16.05;100.00;100839.56;5033088;28;20064;-82
2022/09/10 08:50:54;;;;;;;23.67;13.57;;;;;;;16.07;100.00;100842.13;5034462;28;20063;-83
2022/09/10 08:53:26;;;;;;;23.67;13.85;;;;;;;16.06;100.00;100835.88;5034482;28;20029;-83
2022/09/10 08:56:00;;;;;;;23.83;13.75;;;;;;;16.06;100.00;100849.44;5032728;28;20453;-83
2022/09/10 08:58:55;;;;;;;24.73;13.02;;;;;;;16.07;100.00;100851.13;5034384;28;20013;-83
2022/09/10 09:01:30;;;;;;;23.92;14.20;;;;;;;16.05;100.00;100852.28;5028903;28;20064;-83
2022/09/10 09:03:57;;;;;;;23.60;13.48;;;;;;;16.01;100.00;100854.44;5039729;28;20493;-83
2022/09/10 09:06:32;;;;;;;24.27;13.20;;;;;;;16.01;100.00;100854.44;5052985;28;20079;-83
2022/09/10 09:09:00;;;;;;;24.77;13.15;;;;;;;16.01;100.00;100851.72;5051291;28;20128;-83
2022/09/10 09:11:31;;;;;;;22.92;12.88;;;;;;;16.00;100.00;100855.44;5032668;28;20029;-83
2022/09/10 09:14:24;;;;;;;26.80;13.85;;;;;;;16.01;100.00;100862.56;5049061;28;20033;-83
2022/09/10 09:17:08;;;;;;;25.52;15.30;;;;;;;16.01;100.00;100856.28;5052380;28;20097;-83
2022/09/10 09:19:43;;;;;;;26.60;13.90;;;;;;;16.05;100.00;100855.84;5052560;28;20037;-83
2022/09/10 09:22:54;;;;;;;27.83;15.63;;;;;;;16.12;100.00;100855.25;5050961;28;20460;-83
2022/09/10 09:25:29;;;;;;;25.65;14.90;;;;;;;16.20;100.00;100852.66;5033152;28;20159;-84
2022/09/10 09:27:56;;;;;;;26.10;14.63;;;;;;;16.21;100.00;100855.22;5052320;28;20385;-83
2022/09/10 09:30:34;;;;;;;25.27;14.65;;;;;;;16.28;100.00;100863.59;5051209;28;20056;-83
2022/09/10 09:33:13;;;;;;;27.27;15.68;;;;;;;16.31;100.00;100855.19;5043899;28;20033;-83
2022/09/10 09:35:52;;;;;;;25.13;15.90;;;;;;;16.37;100.00;100864.56;5032078;28;20104;-84
2022/09/10 09:38:24;;;;;;;24.58;14.65;;;;;;;16.40;100.00;100861.56;5048997;28;20124;-83
2022/09/10 09:40:55;;;;;;;28.60;15.65;;;;;;;16.45;100.00;100866.53;5049067;28;20484;-83
2022/09/10 09:43:28;;;;;;;24.35;14.88;;;;;;;16.52;100.00;100864.94;5052076;28;20521;-83
2022/09/10 09:45:54;;;;;;;25.65;15.52;;;;;;;16.57;100.00;100862.59;5051642;28;20052;-83
2022/09/10 09:48:21;;;;;;;24.80;15.23;;;;;;;16.60;100.00;100873.16;5051895;28;20021;-83
2022/09/10 09:50:59;;;;;;;26.52;13.50;;;;;;;16.62;100.00;100871.16;5051914;28;20025;-83
2022/09/10 09:53:28;;;;;;;23.92;13.40;;;;;;;16.63;100.00;100866.56;5049609;28;20613;-83
2022/09/10 09:55:56;;;;;;;25.20;13.90;;;;;;;16.62;100.00;100864.84;5044615;28;20030;-83
2022/09/10 09:58:30;;;;;;;24.95;13.80;;;;;;;16.60;100.00;100862.28;5051141;28;20417;-83
2022/09/10 10:01:02;;;;;;;25.25;14.57;;;;;;;16.60;100.00;100868.59;5035180;28;20540;-82
2022/09/10 10:03:29;;;;;;;25.83;14.27;;;;;;;16.59;100.00;100858.75;5055706;28;20028;-83
2022/09/10 10:06:05;;;;;;;27.33;14.20;;;;;;;16.63;100.00;100856.56;5049166;28;20037;-82
2022/09/10 10:08:50;;;;;;;24.45;14.65;;;;;;;16.66;100.00;100861.72;5042751;28;20068;-82
2022/09/10 10:11:20;;;;;;;23.48;14.52;;;;;;;16.69;100.00;100861.41;5046538;28;20509;-82
2022/09/10 10:13:47;;;;;;;24.05;13.05;;;;;;;16.72;100.00;100861.09;5033641;28;20018;-82
2022/09/10 10:16:34;;;;;;;22.67;13.65;;;;;;;16.76;100.00;100880.63;5032195;28;20080;-83
2022/09/10 10:19:00;;;;;;;24.48;13.45;;;;;;;16.82;100.00;100885.44;5045970;28;20127;-83
2022/09/10 10:21:35;;;;;;;23.35;12.63;;;;;;;16.86;100.00;100888.72;5051139;28;20407;-83
2022/09/10 10:24:01;;;;;;;24.17;13.43;;;;;;;16.90;100.00;100874.72;5051159;28;20052;-82
2022/09/10 10:26:31;;;;;;;22.20;13.27;;;;;;;16.97;100.00;100879.53;5051092;28;20564;-83
2022/09/10 10:28:59;;;;;;;25.50;13.52;;;;;;;17.01;100.00;100886.38;5045913;28;20044;-82
2022/09/10 10:31:38;;;;;;;22.13;13.35;;;;;;;17.05;100.00;100883.19;5048958;28;20444;-83
2022/09/10 10:34:09;;;;;;;24.90;13.70;;;;;;;17.10;100.00;100875.44;5051675;28;20033;-83
2022/09/10 10:37:04;;;;;;;22.33;12.95;;;;;;;17.12;100.00;100883.44;5046565;28;20033;-82
2022/09/10 10:39:54;;;;;;;25.23;14.07;;;;;;;17.12;100.00;100883.44;5047163;28;20393;-82
2022/09/10 10:42:40;;;;;;;22.27;13.02;;;;;;;17.12;100.00;100894.28;5050736;28;20543;-82
2022/09/10 10:45:20;;;;;;;21.58;11.93;;;;;;;17.13;100.00;100893.28;5048821;28;20087;-82
2022/09/10 10:48:03;;;;;;;21.30;10.90;;;;;;;17.17;100.00;100896.53;5046498;28;20063;-82
2022/09/10 10:50:58;;;;;;;22.25;10.60;;;;;;;17.19;100.00;100895.38;5050700;28;20020;-83
2022/09/10 10:54:02;;;;;;;23.15;10.90;;;;;;;17.20;100.00;100901.66;5048515;28;20044;-82
2022/09/10 10:56:55;;;;;;;20.40;9.75;;;;;;;17.15;100.00;100904.84;5026096;28;20133;-83
2022/09/10 10:59:45;;;;;;;23.88;8.90;;;;;;;17.16;100.00;100905.69;5049573;28;20059;-82
2022/09/10 11:02:32;;;;;;;20.20;9.15;;;;;;;17.12;100.00;100908.72;5030078;28;20051;-83
2022/09/10 11:05:01;;;;;;;21.38;9.23;;;;;;;17.10;100.00;100901.72;5033970;28;20022;-83
2022/09/10 11:07:38;;;;;;;21.73;8.95;;;;;;;17.11;100.00;100898.00;5037744;28;20461;-83
2022/09/10 11:10:23;;;;;;;26.13;9.10;;;;;;;17.08;100.00;100910.03;5042916;28;20514;-83
2022/09/10 11:13:02;;;;;;;23.05;8.90;;;;;;;17.05;100.00;100894.03;5046723;28;20025;-84
2022/09/10 11:15:41;;;;;;;22.85;9.45;;;;;;;17.02;100.00;100909.81;5036959;28;20138;-83
2022/09/10 11:18:57;;;;;;;19.67;8.70;;;;;;;17.00;100.00;100911.78;5044623;28;20032;-84